createdAt,value
2023-04-27T00:00:11.290Z,93.77
2023-04-27T00:02:41.804Z,93.18
2023-04-27T00:05:12.001Z,93.50
2023-04-27T00:07:41.251Z,92.70
2023-04-27T00:10:11.125Z,92.74
2023-04-27T00:12:45.172Z,93.05
2023-04-27T00:15:16.266Z,93.02
2023-04-27T00:17:46.562Z,92.75
2023-04-27T00:20:15.334Z,92.73
2023-04-27T00:22:44.093Z,92.75
2023-04-27T00:25:12.996Z,92.47
2023-04-27T00:27:41.836Z,92.47
2023-04-27T00:30:12.097Z,92.37
2023-04-27T00:32:42.421Z,92.40
2023-04-27T00:35:13.199Z,92.37
2023-04-27T00:37:44.206Z,92.41
2023-04-27T00:40:13.490Z,92.34
2023-04-27T00:42:42.289Z,92.18
2023-04-27T00:45:13.450Z,92.30
2023-04-27T00:47:42.767Z,92.28
2023-04-27T00:50:13.704Z,92.32
2023-04-27T00:52:42.984Z,92.26
2023-04-27T00:55:11.768Z,92.24
2023-04-27T00:57:42.280Z,92.25
2023-04-27T01:00:13.823Z,91.96
2023-04-27T01:02:43.697Z,91.90
2023-04-27T01:05:14.232Z,92.14
2023-04-27T01:07:43.789Z,92.10
2023-04-27T01:10:12.742Z,91.98
2023-04-27T01:12:41.647Z,91.90
2023-04-27T01:15:11.781Z,92.10
2023-04-27T01:17:41.800Z,92.05
2023-04-27T01:20:11.313Z,92.01
2023-04-27T01:22:41.927Z,92.15
2023-04-27T01:25:12.676Z,92.19
2023-04-27T01:27:41.453Z,92.29
2023-04-27T01:30:10.592Z,92.28
2023-04-27T01:32:39.622Z,92.42
2023-04-27T01:35:09.013Z,92.46
2023-04-27T01:37:38.216Z,92.51
2023-04-27T01:40:08.868Z,92.58
2023-04-27T01:42:39.057Z,92.33
2023-04-27T01:45:12.157Z,92.61
2023-04-27T01:47:41.182Z,92.46
2023-04-27T01:50:11.556Z,92.82
2023-04-27T01:52:41.367Z,92.75
2023-04-27T01:55:11.296Z,92.64
2023-04-27T01:57:41.695Z,92.94
2023-04-27T02:00:11.775Z,92.50
2023-04-27T02:02:57.430Z,93.08
2023-04-27T02:05:26.429Z,92.67
2023-04-27T02:07:57.100Z,92.67
2023-04-27T02:10:26.137Z,92.89
2023-04-27T02:12:58.852Z,92.67
2023-04-27T02:15:27.969Z,92.93
2023-04-27T02:17:57.374Z,92.93
2023-04-27T02:20:26.773Z,92.80
2023-04-27T02:22:55.684Z,92.40
2023-04-27T02:25:28.265Z,92.33
2023-04-27T02:27:58.838Z,92.80
2023-04-27T02:30:28.370Z,93.09
2023-04-27T02:33:00.756Z,93.28
2023-04-27T02:35:29.639Z,93.02
2023-04-27T02:38:01.694Z,93.44
2023-04-27T02:40:30.455Z,92.94
2023-04-27T02:43:00.879Z,92.82
2023-04-27T02:45:30.984Z,92.86
2023-04-27T02:48:00.447Z,93.21
2023-04-27T02:50:29.324Z,93.03
2023-04-27T02:52:58.072Z,93.06
2023-04-27T02:55:31.102Z,92.98
2023-04-27T02:58:01.263Z,93.10
2023-04-27T03:00:30.323Z,93.12
2023-04-27T03:03:00.563Z,92.97
2023-04-27T03:05:31.709Z,92.80
2023-04-27T03:08:00.584Z,93.04
2023-04-27T03:10:36.992Z,92.61
2023-04-27T03:13:07.274Z,91.31
2023-04-27T03:15:36.870Z,91.96
2023-04-27T03:18:06.306Z,92.03
2023-04-27T03:20:36.103Z,91.64
2023-04-27T03:23:05.392Z,92.15
2023-04-27T03:25:35.413Z,92.12
2023-04-27T03:28:04.634Z,92.24
2023-04-27T03:30:35.979Z,92.28
2023-04-27T03:33:04.767Z,92.30
2023-04-27T03:35:34.818Z,92.41
2023-04-27T03:38:03.672Z,92.37
2023-04-27T03:40:34.001Z,92.23
2023-04-27T03:43:04.719Z,92.52
2023-04-27T03:45:34.854Z,92.44
2023-04-27T03:48:03.859Z,92.10
2023-04-27T03:50:33.008Z,92.29
2023-04-27T03:53:03.301Z,91.95
2023-04-27T03:55:32.205Z,92.44
2023-04-27T03:58:01.099Z,92.07
2023-04-27T04:00:59.999Z,92.19
2023-04-27T04:03:51.861Z,92.00
2023-04-27T04:06:20.818Z,91.89
2023-04-27T04:08:49.762Z,91.39
2023-04-27T04:11:19.068Z,90.98
2023-04-27T04:13:48.549Z,90.84
2023-04-27T04:16:19.543Z,90.69
2023-04-27T04:18:48.740Z,90.74
2023-04-27T04:21:17.978Z,90.99
2023-04-27T04:23:46.764Z,90.41
2023-04-27T04:26:15.721Z,90.51
2023-04-27T04:28:45.834Z,90.38
2023-04-27T04:31:17.517Z,90.49
2023-04-27T04:33:48.123Z,90.42
2023-04-27T04:36:18.545Z,90.27
2023-04-27T04:38:47.373Z,90.49
2023-04-27T04:41:19.767Z,90.70
2023-04-27T04:43:49.495Z,90.52
2023-04-27T04:46:20.107Z,90.54
2023-04-27T04:48:52.182Z,90.22
2023-04-27T04:51:22.793Z,89.90
2023-04-27T04:53:52.365Z,89.84
2023-04-27T04:56:21.285Z,90.21
2023-04-27T04:58:50.227Z,90.37
2023-04-27T05:01:19.477Z,90.21
2023-04-27T05:03:49.777Z,88.94
2023-04-27T05:06:18.727Z,89.20
2023-04-27T05:08:47.442Z,88.85
2023-04-27T05:11:16.135Z,88.62
2023-04-27T05:13:45.333Z,88.61
2023-04-27T05:16:14.265Z,87.37
2023-04-27T05:18:43.660Z,86.15
2023-04-27T05:21:20.622Z,86.38
2023-04-27T05:23:49.530Z,85.91
2023-04-27T05:26:19.621Z,84.51
2023-04-27T05:28:50.414Z,82.93
2023-04-27T05:31:19.462Z,82.28
2023-04-27T05:33:48.475Z,81.27
2023-04-27T05:36:18.552Z,80.51
2023-04-27T05:38:47.257Z,79.08
2023-04-27T05:41:16.081Z,79.31
2023-04-27T05:43:45.183Z,78.30
2023-04-27T05:46:15.844Z,78.34
2023-04-27T05:48:44.665Z,71.65
2023-04-27T05:51:13.567Z,72.68
2023-04-27T05:53:43.846Z,72.33
2023-04-27T05:56:12.830Z,72.35
2023-04-27T05:58:42.184Z,71.86
2023-04-27T06:01:10.997Z,67.89
2023-04-27T06:03:39.974Z,68.11
2023-04-27T06:06:09.021Z,67.88
2023-04-27T06:08:39.536Z,67.15
2023-04-27T06:11:09.750Z,66.44
2023-04-27T06:13:38.596Z,65.12
2023-04-27T06:16:08.155Z,64.69
2023-04-27T06:18:37.191Z,63.15
2023-04-27T06:21:07.054Z,61.89
2023-04-27T06:23:35.972Z,62.63
2023-04-27T06:26:05.312Z,61.54
2023-04-27T06:28:35.655Z,59.87
2023-04-27T06:31:04.885Z,58.98
2023-04-27T06:33:33.819Z,59.46
2023-04-27T06:36:03.249Z,59.30
2023-04-27T06:38:32.122Z,59.81
2023-04-27T06:41:00.996Z,59.51
2023-04-27T06:43:29.802Z,59.51
2023-04-27T06:45:59.967Z,59.45
2023-04-27T06:48:28.814Z,58.80
2023-04-27T06:50:57.624Z,58.83
2023-04-27T06:53:26.335Z,57.13
2023-04-27T06:55:56.549Z,56.62
2023-04-27T06:58:25.296Z,56.80
2023-04-27T07:00:54.062Z,56.32
2023-04-27T07:03:24.411Z,57.89
2023-04-27T07:05:53.294Z,58.89
2023-04-27T07:08:22.088Z,57.46
2023-04-27T07:10:51.087Z,57.68
2023-04-27T07:13:19.811Z,58.60
2023-04-27T07:15:48.612Z,59.51
2023-04-27T07:18:17.540Z,59.14
2023-04-27T07:20:47.655Z,58.80
2023-04-27T07:23:16.543Z,56.65
2023-04-27T07:25:45.525Z,56.65
2023-04-27T07:28:15.147Z,57.05
2023-04-27T07:30:43.940Z,56.16
2023-04-27T07:33:13.294Z,54.82
2023-04-27T07:35:42.095Z,55.30
2023-04-27T07:38:12.479Z,53.73
2023-04-27T07:40:42.672Z,53.32
2023-04-27T07:43:12.576Z,51.83
2023-04-27T07:45:42.492Z,51.57
2023-04-27T07:48:11.477Z,51.88
2023-04-27T07:50:40.383Z,50.55
2023-04-27T07:53:09.092Z,49.41
2023-04-27T07:55:39.221Z,47.49
2023-04-27T07:58:07.944Z,48.71
2023-04-27T08:00:36.649Z,47.06
2023-04-27T08:03:05.788Z,46.42
2023-04-27T08:05:35.259Z,46.24
2023-04-27T08:08:04.614Z,45.22
2023-04-27T08:10:33.518Z,45.18
2023-04-27T08:13:03.900Z,45.49
2023-04-27T08:15:32.745Z,46.68
2023-04-27T08:18:01.509Z,44.25
2023-04-27T08:20:30.541Z,44.47
2023-04-27T08:22:59.314Z,44.72
2023-04-27T08:25:28.014Z,45.06
2023-04-27T08:27:56.728Z,44.79
2023-04-27T08:30:26.850Z,44.94
2023-04-27T08:32:55.756Z,43.37
2023-04-27T08:35:24.495Z,42.10
2023-04-27T08:37:54.292Z,42.58
2023-04-27T08:40:24.819Z,43.19
2023-04-27T08:42:58.639Z,43.64
2023-04-27T08:45:29.826Z,42.44
2023-04-27T08:47:58.638Z,42.98
2023-04-27T08:50:27.490Z,42.19
2023-04-27T08:52:56.304Z,42.35
2023-04-27T08:55:25.129Z,41.78
2023-04-27T08:57:58.175Z,41.13
2023-04-27T09:00:38.828Z,40.73
2023-04-27T09:03:08.042Z,40.11
2023-04-27T09:05:37.084Z,40.21
2023-04-27T09:08:08.404Z,40.64
2023-04-27T09:10:47.479Z,41.12
2023-04-27T09:13:16.488Z,41.94
2023-04-27T09:15:48.838Z,42.03
2023-04-27T09:18:19.279Z,41.78
2023-04-27T09:20:50.422Z,40.97
2023-04-27T09:23:37.856Z,40.89
2023-04-27T09:26:08.856Z,41.23
2023-04-27T09:28:41.295Z,41.51
2023-04-27T09:31:11.896Z,41.87
2023-04-27T09:33:40.427Z,41.78
2023-04-27T09:36:09.692Z,41.28
2023-04-27T09:38:38.565Z,41.59
2023-04-27T09:41:09.032Z,40.92
2023-04-27T09:43:38.138Z,41.12
2023-04-27T09:46:07.244Z,41.23
2023-04-27T09:48:39.823Z,41.20
2023-04-27T09:51:08.746Z,40.73
2023-04-27T09:53:42.564Z,40.37
2023-04-27T09:56:28.419Z,40.53
2023-04-27T09:59:16.886Z,40.03
2023-04-27T10:01:48.813Z,40.08
2023-04-27T10:04:34.495Z,39.33
2023-04-27T10:07:04.896Z,39.66
2023-04-27T10:09:38.463Z,39.64
2023-04-27T10:12:18.980Z,39.86
2023-04-27T10:14:53.230Z,38.64
2023-04-27T10:17:30.306Z,37.76
2023-04-27T10:20:05.130Z,37.77
2023-04-27T10:22:41.971Z,38.40
2023-04-27T10:25:22.150Z,37.07
2023-04-27T10:27:53.063Z,36.58
2023-04-27T10:30:24.376Z,35.63
2023-04-27T10:32:54.729Z,35.97
2023-04-27T10:35:33.730Z,36.99
2023-04-27T10:38:08.554Z,37.21
2023-04-27T10:40:38.167Z,36.64
2023-04-27T10:43:11.361Z,37.03
2023-04-27T10:45:40.472Z,36.56
2023-04-27T10:48:09.536Z,36.47
2023-04-27T10:50:40.501Z,36.26
2023-04-27T10:53:09.802Z,35.81
2023-04-27T10:55:39.171Z,35.95
2023-04-27T10:58:08.016Z,35.75
2023-04-27T11:00:41.746Z,36.94
2023-04-27T11:03:18.678Z,36.82
2023-04-27T11:06:03.209Z,35.67
2023-04-27T11:08:34.126Z,34.88
2023-04-27T11:11:11.335Z,35.88
2023-04-27T11:13:40.727Z,37.05
2023-04-27T11:16:12.740Z,37.82
2023-04-27T11:18:41.869Z,38.04
2023-04-27T11:21:16.338Z,36.41
2023-04-27T11:23:45.463Z,35.00
2023-04-27T11:26:16.142Z,35.14
2023-04-27T11:28:45.759Z,34.34
2023-04-27T11:31:19.522Z,34.25
2023-04-27T11:33:52.064Z,33.73
2023-04-27T11:36:23.630Z,34.27
2023-04-27T11:38:52.423Z,35.33
2023-04-27T11:41:21.174Z,36.22
2023-04-27T11:43:51.286Z,35.78
2023-04-27T11:46:22.364Z,36.49
2023-04-27T11:48:52.400Z,35.36
2023-04-27T11:51:26.241Z,35.72
2023-04-27T11:53:54.992Z,35.41
2023-04-27T11:56:23.753Z,35.55
2023-04-27T11:58:52.168Z,36.13
2023-04-27T12:01:30.877Z,36.77
2023-04-27T12:04:05.927Z,37.40
2023-04-27T12:06:36.546Z,37.81
2023-04-27T12:09:05.644Z,37.75
2023-04-27T12:11:34.702Z,37.66
2023-04-27T12:14:04.349Z,37.32
2023-04-27T12:16:33.616Z,36.76
2023-04-27T12:19:02.602Z,35.94
2023-04-27T12:21:32.252Z,36.83
2023-04-27T12:24:02.388Z,37.24
2023-04-27T12:26:31.156Z,36.83
2023-04-27T12:28:59.944Z,37.14
2023-04-27T12:31:28.729Z,36.53
2023-04-27T12:33:57.706Z,34.62
2023-04-27T12:36:27.329Z,33.00
2023-04-27T12:38:58.977Z,33.27
2023-04-27T12:41:29.277Z,33.67
2023-04-27T12:43:57.858Z,34.26
2023-04-27T12:46:26.860Z,34.69
2023-04-27T12:48:57.080Z,33.45
2023-04-27T12:51:25.950Z,34.57
2023-04-27T12:53:54.709Z,34.44
2023-04-27T12:56:24.108Z,35.22
2023-04-27T12:58:54.186Z,35.28
2023-04-27T13:01:24.943Z,35.02
2023-04-27T13:03:54.786Z,34.16
2023-04-27T13:06:23.909Z,34.68
2023-04-27T13:08:52.855Z,35.33
2023-04-27T13:11:21.809Z,35.54
2023-04-27T13:13:50.834Z,35.29
2023-04-27T13:16:22.661Z,35.66
2023-04-27T13:18:52.458Z,35.71
2023-04-27T13:21:21.103Z,35.58
2023-04-27T13:23:51.236Z,36.12
2023-04-27T13:26:20.003Z,36.98
2023-04-27T13:28:49.032Z,37.21
2023-04-27T13:31:17.869Z,37.12
2023-04-27T13:33:48.084Z,36.79
2023-04-27T13:36:16.981Z,36.22
2023-04-27T13:38:47.686Z,35.43
2023-04-27T13:41:16.602Z,35.80
2023-04-27T13:43:45.578Z,35.86
2023-04-27T13:46:15.474Z,35.66
2023-04-27T13:48:44.288Z,35.91
2023-04-27T13:51:14.508Z,35.38
2023-04-27T13:53:43.292Z,34.60
2023-04-27T13:56:11.769Z,34.86
2023-04-27T13:58:41.646Z,34.21
2023-04-27T14:01:10.594Z,35.18
2023-04-27T14:06:08.367Z,35.44
2023-04-27T14:08:38.732Z,35.14
2023-04-27T14:11:07.535Z,35.97
2023-04-27T14:13:36.379Z,36.19
2023-04-27T14:16:05.338Z,36.53
2023-04-27T14:18:34.290Z,36.88
2023-04-27T14:21:03.445Z,37.54
2023-04-27T14:23:32.355Z,37.14
2023-04-27T14:26:02.593Z,36.91
2023-04-27T14:28:31.468Z,35.46
2023-04-27T14:31:00.195Z,35.82
2023-04-27T14:33:28.998Z,35.82
2023-04-27T14:35:57.809Z,36.38
2023-04-27T14:38:26.547Z,36.37
2023-04-27T14:40:55.289Z,36.93
2023-04-27T14:43:25.414Z,36.23
2023-04-27T14:46:19.834Z,36.82
2023-04-27T14:48:50.705Z,36.73
2023-04-27T14:51:19.805Z,37.13
2023-04-27T14:53:48.757Z,37.15
2023-04-27T14:56:18.053Z,37.36
2023-04-27T14:58:48.563Z,37.05
2023-04-27T15:01:17.403Z,36.04
2023-04-27T15:03:46.345Z,35.42
2023-04-27T15:06:15.388Z,35.16
2023-04-27T15:08:44.067Z,34.92
2023-04-27T15:11:12.805Z,35.20
2023-04-27T15:13:41.508Z,36.05
2023-04-27T15:16:11.663Z,36.67
2023-04-27T15:18:40.608Z,36.25
2023-04-27T15:21:09.320Z,36.38
2023-04-27T15:23:41.037Z,36.40
2023-04-27T15:26:09.807Z,36.71
2023-04-27T15:28:38.589Z,36.66
2023-04-27T15:31:07.481Z,36.72
2023-04-27T15:33:37.676Z,36.67
2023-04-27T15:36:06.919Z,35.78
2023-04-27T15:38:36.351Z,36.29
2023-04-27T15:41:05.149Z,35.70
2023-04-27T15:43:33.885Z,35.61
2023-04-27T15:46:05.846Z,35.94
2023-04-27T15:48:36.361Z,35.21
2023-04-27T15:51:09.526Z,35.19
2023-04-27T15:53:39.083Z,35.88
2023-04-27T15:56:08.103Z,35.79
2023-04-27T15:58:36.839Z,36.00
2023-04-27T16:01:07.021Z,35.84
2023-04-27T16:03:37.874Z,35.93
2023-04-27T16:06:07.597Z,36.39
2023-04-27T16:08:36.309Z,36.44
2023-04-27T16:11:05.147Z,36.00
2023-04-27T16:13:33.906Z,36.64
2023-04-27T16:16:04.442Z,36.84
2023-04-27T16:18:34.802Z,37.31
2023-04-27T16:21:05.095Z,37.12
2023-04-27T16:23:33.836Z,36.72
2023-04-27T16:26:02.603Z,37.05
2023-04-27T16:28:32.756Z,38.20
2023-04-27T16:31:01.754Z,38.49
2023-04-27T16:33:31.293Z,38.79
2023-04-27T16:36:00.106Z,39.41
2023-04-27T16:38:30.206Z,39.57
2023-04-27T16:40:58.937Z,39.54
2023-04-27T16:43:28.068Z,39.32
2023-04-27T16:45:56.907Z,39.51
2023-04-27T16:48:25.865Z,39.95
2023-04-27T16:50:55.648Z,40.15
2023-04-27T16:53:24.579Z,40.21
2023-04-27T16:55:54.791Z,40.62
2023-04-27T16:58:24.122Z,40.41
2023-04-27T17:00:52.868Z,39.98
2023-04-27T17:03:21.739Z,39.62
2023-04-27T17:05:51.266Z,39.99
2023-04-27T17:08:20.136Z,40.65
2023-04-27T17:10:49.185Z,40.52
2023-04-27T17:13:19.324Z,40.37
2023-04-27T17:15:48.221Z,40.43
2023-04-27T17:18:17.020Z,40.44
2023-04-27T17:20:45.728Z,40.38
2023-04-27T17:23:14.495Z,40.57
2023-04-27T17:25:43.203Z,40.68
2023-04-27T17:28:12.193Z,40.61
2023-04-27T17:30:42.644Z,41.33
2023-04-27T17:33:11.413Z,41.89
2023-04-27T17:35:40.740Z,42.21
2023-04-27T17:38:09.517Z,42.60
2023-04-27T17:40:38.282Z,42.69
2023-04-27T17:43:07.545Z,43.22
2023-04-27T17:45:36.730Z,43.70
2023-04-27T17:48:07.810Z,43.97
2023-04-27T17:50:37.508Z,44.33
2023-04-27T17:53:06.339Z,44.30
2023-04-27T17:55:35.334Z,44.96
2023-04-27T17:58:06.332Z,44.98
2023-04-27T18:00:35.749Z,46.62
2023-04-27T18:03:06.305Z,47.43
2023-04-27T18:05:35.308Z,48.08
2023-04-27T18:08:04.200Z,47.90
2023-04-27T18:10:33.008Z,48.74
2023-04-27T18:13:01.761Z,48.81
2023-04-27T18:15:30.566Z,49.22
2023-04-27T18:17:59.383Z,50.05
2023-04-27T18:20:29.866Z,50.35
2023-04-27T18:22:58.870Z,50.90
2023-04-27T18:25:27.705Z,51.05
2023-04-27T18:27:56.612Z,51.55
2023-04-27T18:30:25.926Z,52.15
2023-04-27T18:32:55.091Z,52.44
2023-04-27T18:35:24.140Z,52.36
2023-04-27T18:37:54.207Z,53.36
2023-04-27T18:40:24.980Z,53.60
2023-04-27T18:42:54.568Z,54.14
2023-04-27T18:45:23.560Z,53.93
2023-04-27T18:47:52.406Z,54.50
2023-04-27T18:50:21.433Z,53.83
2023-04-27T18:52:50.279Z,54.18
2023-04-27T18:55:20.695Z,55.39
2023-04-27T18:57:49.701Z,56.54
2023-04-27T19:00:18.616Z,58.72
2023-04-27T19:02:48.288Z,59.74
2023-04-27T19:05:17.394Z,61.01
2023-04-27T19:07:46.153Z,59.75
2023-04-27T19:10:14.956Z,58.94
2023-04-27T19:12:45.097Z,58.42
2023-04-27T19:15:14.406Z,58.67
2023-04-27T19:17:43.574Z,58.84
2023-04-27T19:20:12.917Z,60.00
2023-04-27T19:22:41.663Z,60.35
2023-04-27T19:25:10.889Z,60.49
2023-04-27T19:27:39.768Z,60.83
2023-04-27T19:30:11.440Z,60.98
2023-04-27T19:32:40.341Z,62.85
2023-04-27T19:35:12.469Z,62.58
2023-04-27T19:37:41.391Z,62.50
2023-04-27T19:40:11.370Z,62.61
2023-04-27T19:42:40.129Z,61.41
2023-04-27T19:45:10.980Z,61.28
2023-04-27T19:47:39.844Z,61.86
2023-04-27T19:50:09.347Z,62.71
2023-04-27T19:52:38.214Z,61.73
2023-04-27T19:55:07.813Z,61.91
2023-04-27T19:57:39.637Z,61.70
2023-04-27T20:00:12.320Z,63.10
2023-04-27T20:02:43.940Z,63.46
2023-04-27T20:05:13.565Z,66.24
2023-04-27T20:07:42.746Z,64.36
2023-04-27T20:10:11.749Z,64.33
2023-04-27T20:12:55.256Z,63.82
2023-04-27T20:15:26.882Z,64.16
2023-04-27T20:17:55.817Z,65.01
2023-04-27T20:20:24.631Z,64.60
2023-04-27T20:22:53.339Z,65.34
2023-04-27T20:25:22.195Z,64.40
2023-04-27T20:27:51.313Z,66.37
2023-04-27T20:30:20.268Z,65.92
2023-04-27T20:32:50.489Z,66.41
2023-04-27T20:35:19.315Z,66.12
2023-04-27T20:37:48.034Z,67.14
2023-04-27T20:40:18.244Z,68.51
2023-04-27T20:42:49.402Z,69.36
2023-04-27T20:45:18.708Z,69.10
2023-04-27T20:47:47.518Z,67.53
2023-04-27T20:50:17.800Z,68.07
2023-04-27T20:52:50.078Z,68.23
2023-04-27T20:55:18.828Z,67.18
2023-04-27T20:57:47.563Z,67.81
2023-04-27T21:00:18.577Z,67.34
2023-04-27T21:02:48.297Z,68.68
2023-04-27T21:05:18.801Z,68.38
2023-04-27T21:07:47.517Z,68.50
2023-04-27T21:10:16.276Z,68.26
2023-04-27T21:12:44.980Z,67.83
2023-04-27T21:15:13.775Z,68.52
2023-04-27T21:17:42.552Z,68.88
2023-04-27T21:20:12.310Z,70.55
2023-04-27T21:22:42.404Z,71.39
2023-04-27T21:25:11.531Z,70.85
2023-04-27T21:27:40.755Z,71.17
2023-04-27T21:30:11.132Z,71.27
2023-04-27T21:32:39.937Z,72.11
2023-04-27T21:35:09.790Z,73.82
2023-04-27T21:37:38.604Z,73.44
2023-04-27T21:40:09.972Z,78.38
2023-04-27T21:42:38.805Z,78.09
2023-04-27T21:45:08.618Z,78.73
2023-04-27T21:47:37.521Z,77.23
2023-04-27T21:50:07.727Z,78.27
2023-04-27T21:52:36.568Z,79.72
2023-04-27T21:55:05.762Z,79.34
2023-04-27T21:57:35.899Z,80.29
2023-04-27T22:00:13.786Z,79.72
2023-04-27T22:02:49.597Z,77.56
2023-04-27T22:05:20.930Z,77.72
2023-04-27T22:07:49.661Z,78.46
2023-04-27T22:10:18.445Z,78.31
2023-04-27T22:12:48.630Z,78.15
2023-04-27T22:15:19.747Z,78.26
2023-04-27T22:17:49.796Z,78.16
2023-04-27T22:20:18.870Z,80.06
2023-04-27T22:22:48.140Z,79.25
2023-04-27T22:25:16.853Z,79.65
2023-04-27T22:27:46.989Z,80.71
2023-04-27T22:30:16.526Z,79.40
2023-04-27T22:32:45.652Z,78.95
2023-04-27T22:35:25.790Z,78.95
2023-04-27T22:37:56.314Z,79.54
2023-04-27T22:40:25.543Z,80.47
2023-04-27T22:42:56.064Z,79.77
2023-04-27T22:45:24.817Z,80.61
2023-04-27T22:47:53.943Z,80.45
2023-04-27T22:50:23.243Z,81.10
2023-04-27T22:52:53.004Z,82.63
2023-04-27T22:55:22.272Z,82.49
2023-04-27T22:57:51.106Z,82.84
2023-04-27T23:00:21.667Z,84.84
2023-04-27T23:02:50.700Z,84.32
2023-04-27T23:05:19.540Z,82.81
2023-04-27T23:07:48.280Z,82.90
2023-04-27T23:10:18.826Z,81.93
2023-04-27T23:12:47.565Z,81.24
2023-04-27T23:15:16.467Z,80.95
2023-04-27T23:17:46.555Z,81.27
2023-04-27T23:20:27.460Z,81.03
2023-04-27T23:22:57.753Z,80.74
2023-04-27T23:25:26.589Z,80.83
2023-04-27T23:27:55.325Z,80.72
2023-04-27T23:30:24.180Z,80.66
2023-04-27T23:32:54.301Z,80.97
2023-04-27T23:35:23.308Z,81.14
2023-04-27T23:37:52.039Z,81.09
2023-04-27T23:40:20.757Z,80.33
2023-04-27T23:42:51.490Z,80.18
2023-04-27T23:45:20.917Z,80.21
2023-04-27T23:47:49.781Z,81.17
2023-04-27T23:50:19.987Z,81.05
2023-04-27T23:52:49.662Z,80.88
2023-04-27T23:55:18.719Z,80.55
2023-04-27T23:57:47.456Z,80.28
